createdAt,value
2018-08-06T00:01:29.875Z,13.83
2018-08-06T00:04:00.718Z,10.63
2018-08-06T00:06:31.580Z,14.43
2018-08-06T00:09:02.500Z,14.27
2018-08-06T00:11:33.258Z,15.27
2018-08-06T00:14:04.093Z,12.30
2018-08-06T00:16:34.957Z,12.93
2018-08-06T00:19:05.983Z,15.30
2018-08-06T00:21:36.896Z,12.00
2018-08-06T00:24:07.799Z,13.87
2018-08-06T00:26:38.600Z,10.77
2018-08-06T00:29:09.386Z,12.47
2018-08-06T00:31:40.426Z,12.07
2018-08-06T00:34:11.226Z,13.90
2018-08-06T00:36:41.986Z,12.30
2018-08-06T00:39:13.055Z,12.97
2018-08-06T00:41:43.852Z,17.50
2018-08-06T00:44:14.692Z,18.23
2018-08-06T00:46:45.577Z,16.80
2018-08-06T00:49:16.286Z,15.57
2018-08-06T00:51:47.069Z,18.27
2018-08-06T00:54:17.331Z,17.67
2018-08-06T00:56:48.062Z,14.63
2018-08-06T00:59:18.896Z,18.07
2018-08-06T01:01:49.704Z,18.00
2018-08-06T01:04:20.566Z,14.83
2018-08-06T01:06:51.283Z,12.83
2018-08-06T01:09:22.117Z,13.17
2018-08-06T01:11:52.818Z,12.93
2018-08-06T01:14:23.596Z,15.90
2018-08-06T01:16:54.385Z,12.93
2018-08-06T01:19:25.442Z,16.50
2018-08-06T01:21:56.338Z,15.63
2018-08-06T01:24:27.128Z,14.67
2018-08-06T01:26:57.884Z,18.07
2018-08-06T01:29:28.677Z,13.20
2018-08-06T01:33:02.532Z,15.00
2018-08-06T01:35:33.346Z,13.43
2018-08-06T01:38:04.276Z,13.10
2018-08-06T01:40:35.123Z,12.67
2018-08-06T01:43:05.990Z,16.03
2018-08-06T01:45:36.871Z,14.47
2018-08-06T01:48:08.219Z,13.67
2018-08-06T01:50:38.968Z,15.53
2018-08-06T01:53:09.305Z,14.03
2018-08-06T01:55:39.979Z,14.27
2018-08-06T01:58:10.865Z,14.47
2018-08-06T02:00:41.264Z,12.47
2018-08-06T02:03:11.938Z,13.33
2018-08-06T02:05:42.852Z,13.07
2018-08-06T02:08:13.120Z,18.50
2018-08-06T02:10:43.922Z,12.30
2018-08-06T02:13:14.280Z,15.27
2018-08-06T02:15:44.999Z,12.43
2018-08-06T02:18:15.817Z,13.50
2018-08-06T02:20:46.926Z,13.07
2018-08-06T02:23:17.860Z,13.73
2018-08-06T02:25:48.708Z,14.37
2018-08-06T02:28:19.526Z,13.00
2018-08-06T02:30:50.329Z,15.83
2018-08-06T02:33:21.089Z,14.00
2018-08-06T02:35:51.873Z,15.43
2018-08-06T02:38:22.708Z,16.50
2018-08-06T02:40:53.506Z,13.93
2018-08-06T02:43:24.412Z,16.67
2018-08-06T02:45:55.234Z,17.03
2018-08-06T02:48:26.186Z,12.83
2018-08-06T02:50:57.092Z,12.37
2018-08-06T02:53:27.396Z,13.57
2018-08-06T02:55:58.223Z,12.33
2018-08-06T02:58:29.089Z,12.60
2018-08-06T03:00:59.866Z,13.77
2018-08-06T03:03:30.722Z,13.07
2018-08-06T03:06:01.557Z,12.80
2018-08-06T03:08:32.314Z,13.43
2018-08-06T03:11:02.614Z,15.17
2018-08-06T03:13:33.222Z,13.27
2018-08-06T03:16:03.966Z,15.73
2018-08-06T03:18:34.813Z,12.07
2018-08-06T03:21:05.818Z,14.47
2018-08-06T03:23:36.894Z,14.20
2018-08-06T03:26:07.720Z,15.40
2018-08-06T03:28:38.492Z,13.17
2018-08-06T03:31:09.418Z,16.53
2018-08-06T03:33:40.207Z,13.83
2018-08-06T03:36:11.122Z,12.23
2018-08-06T03:38:41.443Z,12.97
2018-08-06T03:41:12.380Z,13.53
2018-08-06T03:43:42.760Z,13.53
2018-08-06T03:46:13.456Z,14.53
2018-08-06T03:48:44.382Z,13.40
2018-08-06T06:45:47.463Z,6.97
2018-08-06T06:48:18.244Z,7.03
2018-08-06T06:50:49.020Z,7.00
2018-08-06T06:53:19.683Z,7.80
2018-08-06T06:55:50.789Z,7.73
2018-08-06T06:58:21.563Z,6.53
2018-08-06T07:00:52.024Z,7.43
2018-08-06T07:03:22.906Z,8.60
2018-08-06T07:05:53.882Z,6.87
2018-08-06T07:08:24.710Z,6.77
2018-08-06T07:10:55.144Z,11.37
2018-08-06T07:13:25.779Z,6.73
2018-08-06T07:15:56.515Z,7.37
2018-08-06T07:18:27.258Z,7.93
2018-08-06T07:20:58.059Z,6.60
2018-08-06T07:23:28.906Z,8.60
2018-08-06T07:25:59.744Z,6.67
2018-08-06T07:28:30.032Z,6.73
2018-08-06T07:31:00.708Z,6.83
2018-08-06T07:33:31.469Z,7.43
2018-08-06T07:36:02.157Z,6.47
2018-08-06T07:38:32.498Z,5.70
2018-08-06T07:41:03.235Z,6.73
2018-08-06T07:43:33.965Z,7.30
2018-08-06T07:46:05.129Z,8.33
2018-08-06T07:48:35.940Z,6.50
2018-08-06T07:51:07.430Z,6.23
2018-08-06T07:53:38.092Z,6.10
2018-08-06T07:56:08.830Z,6.33
2018-08-06T07:58:39.685Z,7.67
2018-08-06T08:01:10.538Z,7.13
2018-08-06T08:03:41.306Z,6.77
2018-08-06T08:06:12.190Z,6.17
2018-08-06T08:08:42.624Z,7.27
2018-08-06T08:11:13.650Z,6.80
2018-08-06T08:13:44.540Z,7.87
2018-08-06T08:16:15.376Z,6.33
2018-08-06T08:18:46.120Z,7.80
2018-08-06T08:21:16.966Z,7.93
2018-08-06T08:23:47.771Z,6.67
2018-08-06T08:26:18.600Z,6.50
2018-08-06T08:28:49.309Z,5.83
2018-08-06T08:31:22.769Z,6.23
2018-08-06T08:33:58.873Z,5.93
2018-08-06T08:36:30.793Z,6.10
2018-08-06T08:39:01.884Z,6.43
2018-08-06T08:41:32.904Z,6.30
2018-08-06T08:44:04.532Z,5.93
2018-08-06T08:46:37.541Z,5.80
2018-08-06T08:49:09.447Z,6.20
2018-08-06T08:51:40.550Z,5.77
2018-08-06T08:54:11.522Z,5.67
2018-08-06T08:56:42.650Z,5.73
2018-08-06T08:59:13.418Z,4.40
2018-08-06T09:01:44.279Z,3.80
2018-08-06T09:04:19.945Z,5.27
2018-08-06T09:06:52.157Z,5.60
2018-08-06T09:09:24.110Z,5.10
2018-08-06T09:11:55.012Z,5.33
2018-08-06T09:14:28.186Z,5.63
2018-08-06T09:16:58.878Z,6.53
2018-08-06T09:19:30.923Z,5.40
2018-08-06T09:22:01.783Z,5.73
2018-08-06T09:24:32.640Z,7.97
2018-08-06T09:27:03.418Z,5.07
2018-08-06T09:29:34.197Z,5.37
2018-08-06T09:32:05.298Z,5.20
2018-08-06T09:34:36.421Z,4.83
2018-08-06T09:37:07.216Z,4.83
2018-08-06T09:39:38.033Z,4.30
2018-08-06T09:42:08.996Z,5.00
2018-08-06T09:44:39.827Z,7.10
2018-08-06T09:47:15.222Z,5.53
2018-08-06T09:49:48.503Z,6.67
2018-08-06T09:52:20.178Z,5.90
2018-08-06T09:54:52.360Z,4.47
2018-08-06T09:57:23.328Z,4.63
2018-08-06T09:59:55.675Z,5.40
2018-08-06T10:02:26.616Z,4.47
2018-08-06T10:04:57.443Z,4.40
2018-08-06T10:07:28.222Z,4.80
2018-08-06T10:09:59.393Z,4.10
2018-08-06T10:12:29.665Z,4.27
2018-08-06T10:15:00.395Z,4.20
2018-08-06T10:17:40.893Z,3.83
2018-08-06T10:20:16.395Z,3.80
2018-08-06T10:22:48.450Z,5.43
2018-08-06T10:25:19.170Z,4.20
2018-08-06T10:27:50.144Z,5.77
2018-08-06T10:30:22.122Z,4.00
2018-08-06T10:32:52.907Z,5.10
2018-08-06T10:35:23.909Z,4.33
2018-08-06T10:37:54.782Z,5.73
2018-08-06T10:40:25.809Z,4.60
2018-08-06T10:42:56.598Z,4.07
2018-08-06T10:45:27.631Z,4.90
2018-08-06T10:47:58.904Z,4.80
2018-08-06T10:50:29.740Z,4.73
2018-08-06T10:53:00.580Z,3.47
2018-08-06T10:55:31.495Z,3.97
2018-08-06T10:58:08.760Z,3.33
2018-08-06T11:00:39.716Z,3.70
2018-08-06T11:03:10.692Z,3.70
2018-08-06T11:05:41.014Z,4.10
2018-08-06T11:08:11.854Z,3.60
2018-08-06T11:10:42.576Z,3.60
2018-08-06T11:13:13.433Z,6.20
2018-08-06T11:15:47.571Z,3.50
2018-08-06T11:18:18.378Z,5.50
2018-08-06T11:20:48.768Z,3.63
2018-08-06T11:23:19.613Z,3.40
2018-08-06T11:25:50.419Z,6.20
2018-08-06T11:28:21.173Z,4.63
2018-08-06T11:30:51.931Z,3.30
2018-08-06T11:33:24.277Z,2.90
2018-08-06T11:35:55.290Z,4.33
2018-08-06T11:38:26.056Z,3.00
2018-08-06T11:40:57.868Z,2.97
2018-08-06T11:43:29.551Z,3.33
2018-08-06T11:46:01.101Z,3.77
2018-08-06T11:48:32.496Z,3.10
2018-08-06T11:51:03.404Z,4.43
2018-08-06T11:53:34.186Z,3.03
2018-08-06T11:56:04.453Z,2.90
2018-08-06T11:58:35.296Z,3.27
2018-08-06T12:01:08.156Z,3.50
2018-08-06T12:03:39.064Z,3.00
2018-08-06T12:06:09.397Z,3.97
2018-08-06T12:08:40.215Z,3.60
2018-08-06T12:11:11.193Z,3.67
2018-08-06T12:13:42.166Z,3.10
2018-08-06T12:16:13.139Z,3.47
2018-08-06T12:18:44.046Z,3.20
2018-08-06T12:21:14.973Z,3.10
2018-08-06T12:23:46.106Z,3.17
2018-08-06T12:26:17.160Z,4.90
2018-08-06T12:28:47.873Z,3.70
2018-08-06T12:31:18.836Z,4.87
2018-08-06T12:33:49.785Z,3.60
2018-08-06T12:36:20.989Z,4.10
2018-08-06T12:39:23.693Z,3.57
2018-08-06T12:41:54.522Z,3.33
2018-08-06T12:44:25.447Z,5.07
2018-08-06T12:46:56.397Z,4.80
2018-08-06T12:49:27.636Z,3.20
2018-08-06T12:51:58.708Z,3.20
2018-08-06T12:54:29.704Z,3.20
2018-08-06T12:57:00.725Z,3.77
2018-08-06T12:59:31.561Z,3.27
2018-08-06T13:02:02.616Z,4.33
2018-08-06T13:04:33.632Z,8.00
2018-08-06T13:07:04.130Z,3.80
2018-08-06T13:09:36.415Z,3.90
2018-08-06T13:12:08.391Z,4.10
2018-08-06T13:14:38.759Z,3.93
2018-08-06T13:17:09.883Z,5.47
2018-08-06T13:19:40.830Z,4.00
2018-08-06T13:22:11.881Z,3.30
2018-08-06T13:24:42.663Z,4.10
2018-08-06T13:27:12.983Z,4.10
2018-08-06T13:29:43.330Z,4.13
2018-08-06T13:32:14.076Z,4.23
2018-08-06T13:34:44.943Z,4.10
2018-08-06T13:37:16.010Z,4.10
2018-08-06T13:39:46.899Z,6.00
2018-08-06T13:42:19.875Z,4.00
2018-08-06T13:44:50.839Z,5.30
2018-08-06T13:47:21.790Z,4.43
2018-08-06T13:49:53.035Z,4.70
2018-08-06T13:52:23.859Z,5.63
2018-08-06T13:54:54.715Z,4.73
2018-08-06T13:57:27.442Z,4.00
2018-08-06T13:59:58.236Z,3.93
2018-08-06T14:02:36.944Z,4.10
2018-08-06T14:05:09.956Z,4.80
2018-08-06T14:07:41.886Z,7.13
2018-08-06T14:10:12.722Z,3.70
2018-08-06T14:12:43.700Z,4.40
2018-08-06T14:15:14.974Z,4.33
2018-08-06T14:17:45.779Z,3.90
2018-08-06T14:20:18.346Z,8.57
2018-08-06T14:22:49.936Z,3.57
2018-08-06T14:25:20.865Z,3.67
2018-08-06T14:27:51.146Z,4.83
2018-08-06T14:30:22.673Z,3.67
2018-08-06T14:32:54.351Z,3.67
2018-08-06T14:35:26.097Z,3.30
2018-08-06T14:37:57.657Z,4.30
2018-08-06T14:40:35.406Z,3.43
2018-08-06T14:43:06.522Z,3.33
2018-08-06T14:45:37.572Z,3.83
2018-08-06T14:48:12.160Z,2.97
2018-08-06T14:50:43.517Z,3.77
2018-08-06T14:53:14.427Z,3.83
2018-08-06T14:55:45.269Z,3.73
2018-08-06T14:58:17.390Z,4.10
2018-08-06T15:00:48.721Z,6.30
2018-08-06T15:03:19.610Z,7.17
2018-08-06T15:05:50.479Z,3.63
2018-08-06T15:08:21.537Z,5.73
2018-08-06T15:10:52.707Z,4.73
2018-08-06T15:13:23.582Z,3.60
2018-08-06T15:15:54.560Z,3.33
2018-08-06T15:18:25.494Z,4.90
2018-08-06T15:20:56.423Z,3.50
2018-08-06T15:23:27.452Z,6.57
2018-08-06T15:25:58.465Z,6.97
2018-08-06T15:28:29.470Z,7.30
2018-08-06T15:31:00.433Z,3.83
2018-08-06T15:33:31.417Z,6.60
2018-08-06T15:36:02.441Z,4.43
2018-08-06T15:38:33.461Z,3.93
2018-08-06T15:41:04.405Z,8.70
2018-08-06T15:43:35.299Z,10.83
2018-08-06T15:46:06.551Z,4.60
2018-08-06T15:48:43.027Z,3.67
2018-08-06T15:51:14.943Z,7.47
2018-08-06T15:53:48.644Z,4.13
2018-08-06T15:56:22.654Z,4.07
2018-08-06T15:58:54.292Z,3.57
2018-08-06T16:01:28.442Z,3.40
2018-08-06T16:04:00.293Z,4.20
2018-08-06T16:06:31.165Z,5.10
2018-08-06T16:09:03.638Z,7.40
2018-08-06T16:11:34.492Z,5.10
2018-08-06T16:14:05.512Z,4.10
2018-08-06T16:16:35.949Z,4.77
2018-08-06T16:19:06.690Z,4.03
2018-08-06T16:21:37.631Z,4.13
2018-08-06T16:24:08.548Z,3.77
2018-08-06T16:26:38.911Z,4.17
2018-08-06T16:29:12.622Z,3.57
2018-08-06T16:31:45.622Z,4.80
2018-08-06T16:34:24.697Z,6.20
2018-08-06T16:37:02.689Z,6.33
2018-08-06T16:39:39.308Z,3.73
2018-08-06T16:42:14.876Z,5.23
2018-08-06T16:45:17.721Z,3.30
2018-08-06T16:47:48.921Z,4.57
2018-08-06T16:50:20.136Z,5.70
2018-08-06T16:52:52.152Z,6.37
2018-08-06T16:55:22.986Z,6.43
2018-08-06T16:57:57.355Z,4.43
2018-08-06T17:00:32.943Z,6.67
2018-08-06T17:03:03.401Z,4.57
2018-08-06T17:05:35.599Z,5.00
2018-08-06T17:08:11.045Z,4.60
2018-08-06T17:10:42.513Z,5.87
2018-08-06T17:13:35.999Z,4.70
2018-08-06T17:16:23.805Z,5.80
2018-08-06T17:25:00.656Z,4.90
2018-08-06T17:27:31.727Z,5.03
2018-08-06T17:34:41.658Z,6.77
2018-08-06T17:37:25.257Z,5.10
2018-08-06T17:39:57.935Z,6.17
2018-08-06T17:42:32.970Z,5.87
2018-08-06T17:45:03.898Z,5.60
2018-08-06T17:47:34.704Z,5.80
2018-08-06T17:50:05.983Z,4.83
2018-08-06T17:52:37.976Z,5.50
2018-08-06T17:55:10.162Z,6.23
2018-08-06T17:57:41.158Z,5.33
2018-08-06T18:00:13.359Z,5.20
2018-08-06T18:02:49.603Z,5.47
2018-08-06T18:05:21.582Z,5.63
2018-08-06T18:07:53.526Z,6.60
2018-08-06T18:10:25.691Z,8.00
2018-08-06T18:13:02.329Z,6.07
2018-08-06T18:15:33.906Z,4.87
2018-08-06T18:18:28.313Z,6.90
2018-08-06T18:21:14.810Z,5.50
2018-08-06T18:37:38.008Z,8.97
